Time;durP1;ratioP1;P1;durP2;ratioP2;P2;SDS_P1;SDS_P2;PMS_P1;PMS_P2;Temp;Humidity;BMP_temperature;BMP_pressure;BME280_temperature;BME280_humidity;BME280_pressure;Samples;Min_cycle;Max_cycle;Signal;HPM_P1;HPM_P2
2022/12/17 13:07:26;;;;;;;26.33;13.77;;;-0.20;99.90;;;;;;10301523;28;20276;-83
2022/12/17 13:12:42;;;;;;;30.43;16.93;;;-0.30;99.90;;;;;;10332544;28;20813;-83
2022/12/17 13:18:17;;;;;;;28.30;16.70;;;-0.50;99.90;;;;;;10309381;28;20236;-85
2022/12/17 13:23:32;;;;;;;47.73;23.90;;;-0.40;99.90;;;;;;10308725;28;20353;-84
2022/12/17 13:28:35;;;;;;;43.97;23.70;;;-0.30;99.90;;;;;;10314222;28;20620;-84
2022/12/17 13:34:12;;;;;;;40.07;22.27;;;0.10;99.90;;;;;;10330336;28;20303;-85
2022/12/17 13:39:32;;;;;;;42.80;22.23;;;-0.50;99.90;;;;;;10331601;28;20306;-83
2022/12/17 13:44:39;;;;;;;31.13;16.20;;;-1.60;99.90;;;;;;10331103;28;20270;-82
2022/12/17 13:49:59;;;;;;;40.60;20.17;;;-1.40;99.90;;;;;;10313593;28;20212;-83
2022/12/17 13:55:27;;;;;;;27.63;13.63;;;-1.00;99.90;;;;;;10313720;28;20691;-84
2022/12/17 14:00:31;;;;;;;35.93;20.07;;;0.50;99.90;;;;;;10308411;28;20265;-83
2022/12/17 14:05:36;;;;;;;42.17;21.77;;;1.10;99.90;;;;;;10330106;28;20256;-83
2022/12/17 14:12:21;;;;;;;42.00;21.87;;;0.70;99.90;;;;;;10329622;28;20237;-84
2022/12/17 14:16:20;;;;;;;38.73;17.87;;;0.60;99.90;;;;;;10329404;28;20757;-84
2022/12/17 14:21:24;;;;;;;31.50;17.33;;;1.70;99.90;;;;;;10328119;28;20264;-85
2022/12/17 14:26:27;;;;;;;28.23;15.97;;;0.90;99.90;;;;;;10327871;28;20229;-86
2022/12/17 14:31:29;;;;;;;43.90;22.47;;;1.90;99.90;;;;;;10327824;28;20234;-86
2022/12/17 14:36:35;;;;;;;45.37;24.03;;;2.00;99.90;;;;;;10329190;28;20676;-85
2022/12/17 14:47:17;;;;;;;54.47;31.20;;;1.00;99.90;;;;;;10310917;28;20241;-84
2022/12/17 14:52:38;;;;;;;45.03;18.50;;;0.40;99.90;;;;;;10325725;28;20318;-84
2022/12/17 14:57:41;;;;;;;42.40;22.30;;;0.40;99.90;;;;;;10312510;28;20232;-85
2022/12/17 15:02:53;;;;;;;43.67;20.63;;;0.90;99.90;;;;;;10302226;28;20264;-85
2022/12/17 15:07:56;;;;;;;40.00;20.40;;;1.00;99.90;;;;;;10327232;28;20232;-87
2022/12/17 15:12:58;;;;;;;60.07;32.87;;;4.60;99.90;;;;;;10327448;28;20283;-87
2022/12/17 15:18:00;;;;;;;48.20;25.93;;;4.10;95.80;;;;;;10326975;28;20240;-87
2022/12/17 15:23:03;;;;;;;44.47;25.97;;;3.40;98.00;;;;;;10326310;28;20249;-88
2022/12/17 15:28:07;;;;;;;42.70;22.07;;;3.60;98.40;;;;;;10325868;28;20209;-87
2022/12/17 15:33:10;;;;;;;45.83;26.37;;;3.20;99.90;;;;;;10326756;28;20229;-88
2022/12/17 15:38:12;;;;;;;46.30;25.93;;;2.80;98.90;;;;;;10326514;28;20242;-87
2022/12/17 15:43:15;;;;;;;47.53;25.17;;;3.40;99.90;;;;;;10310630;28;20303;-88
2022/12/17 15:48:20;;;;;;;53.03;29.93;;;2.40;99.90;;;;;;10327590;28;20678;-88
2022/12/17 15:53:23;;;;;;;47.37;28.40;;;1.60;99.90;;;;;;10327193;28;20291;-88
2022/12/17 15:58:25;;;;;;;64.30;33.37;;;1.10;99.90;;;;;;10326913;28;20236;-88
2022/12/17 16:03:28;;;;;;;59.57;33.37;;;0.80;99.90;;;;;;10331268;28;20303;-88
2022/12/17 16:08:30;;;;;;;56.10;31.37;;;0.30;99.90;;;;;;10335575;28;20232;-88
2022/12/17 16:13:33;;;;;;;29.97;18.77;;;0.20;99.90;;;;;;10335329;28;20291;-88
2022/12/17 16:18:37;;;;;;;31.97;16.67;;;0.10;99.90;;;;;;10335316;28;20228;-88
2022/12/17 16:23:40;;;;;;;32.30;17.23;;;-0.20;99.90;;;;;;10333544;28;20279;-87
2022/12/17 16:28:43;;;;;;;35.53;18.93;;;0.20;99.90;;;;;;10333800;28;20232;-86
2022/12/17 16:33:46;;;;;;;40.73;24.83;;;0.40;99.90;;;;;;10333028;28;20260;-93
2022/12/17 16:38:52;;;;;;;35.33;20.53;;;1.10;99.90;;;;;;10338254;28;20198;-93
2022/12/17 16:43:54;;;;;;;40.10;23.23;;;2.60;99.90;;;;;;10333200;28;20535;-94
2022/12/17 16:48:59;;;;;;;37.93;20.37;;;0.20;99.90;;;;;;10335207;28;20197;-96
2022/12/17 16:54:13;;;;;;;33.97;18.67;;;0.50;99.90;;;;;;10318285;28;20271;-96
2022/12/17 16:59:16;;;;;;;35.63;19.33;;;1.50;99.90;;;;;;10317832;28;20303;-94
2022/12/17 17:04:21;;;;;;;32.47;19.17;;;1.10;99.90;;;;;;10299871;28;20319;-94
2022/12/17 17:09:24;;;;;;;27.47;15.87;;;1.40;99.90;;;;;;10323155;28;20251;-95
2022/12/17 17:14:26;;;;;;;25.17;13.53;;;2.10;99.90;;;;;;10331240;28;20681;-94
2022/12/17 17:19:29;;;;;;;34.17;17.93;;;2.70;99.90;;;;;;10343996;28;20205;-96
2022/12/17 17:24:31;;;;;;;27.97;16.00;;;3.70;99.90;;;;;;10320532;28;20225;-96
2022/12/17 17:29:34;;;;;;;30.13;17.37;;;3.00;99.90;;;;;;10351902;28;20231;-95
2022/12/17 17:34:37;;;;;;;31.30;20.13;;;3.00;99.90;;;;;;10343902;28;20632;-95
2022/12/17 17:39:40;;;;;;;25.67;15.43;;;2.80;99.90;;;;;;10301237;28;20210;-95
2022/12/17 17:44:42;;;;;;;27.33;17.27;;;3.10;99.90;;;;;;10333717;28;20229;-94
2022/12/17 17:49:45;;;;;;;31.57;20.27;;;3.90;99.90;;;;;;10314543;28;20233;-95
2022/12/17 17:54:48;;;;;;;37.70;21.63;;;3.60;99.90;;;;;;10330807;28;20236;-95
2022/12/17 17:59:50;;;;;;;31.40;20.70;;;3.20;99.90;;;;;;10334877;28;20229;-95
2022/12/17 18:04:53;;;;;;;35.23;18.70;;;2.50;99.90;;;;;;10333307;28;20236;-95
2022/12/17 18:09:55;;;;;;;24.23;13.63;;;2.70;99.90;;;;;;10335672;28;20218;-96
2022/12/17 18:14:57;;;;;;;29.03;16.83;;;4.10;99.90;;;;;;10344058;28;20418;-95
2022/12/17 18:20:18;;;;;;;26.27;15.20;;;5.00;99.90;;;;;;10330907;28;20253;-95
2022/12/17 18:25:21;;;;;;;27.73;17.97;;;4.50;99.70;;;;;;10329815;28;20667;-95
2022/12/17 18:30:23;;;;;;;83.53;32.00;;;4.20;99.90;;;;;;9982748;28;10000490;-95
2022/12/17 18:35:26;;;;;;;27.87;13.70;;;3.00;99.90;;;;;;10328296;28;20240;-94
2022/12/17 18:40:28;;;;;;;23.17;14.40;;;4.10;99.90;;;;;;10309847;28;20262;-95
2022/12/17 18:45:37;;;;;;;22.03;13.37;;;4.90;99.90;;;;;;10327157;28;20289;-94
2022/12/17 18:50:39;;;;;;;22.40;13.93;;;4.70;99.90;;;;;;10317996;28;20291;-92
2022/12/17 18:55:41;;;;;;;36.97;19.13;;;5.10;98.00;;;;;;10305026;28;20237;-95
2022/12/17 19:00:44;;;;;;;23.60;14.03;;;4.00;98.40;;;;;;10322799;28;20308;-93
2022/12/17 19:05:46;;;;;;;25.40;14.10;;;4.20;99.90;;;;;;10334951;28;20229;-94
2022/12/17 19:10:55;;;;;;;36.13;18.30;;;4.50;99.90;;;;;;10332399;28;20242;-93
2022/12/17 19:16:07;;;;;;;70.73;32.93;;;4.40;98.40;;;;;;10330909;28;20202;-93
2022/12/17 19:21:15;;;;;;;37.90;21.33;;;3.80;94.60;;;;;;10334101;28;20277;-94
2022/12/17 19:26:19;;;;;;;30.30;16.00;;;3.00;99.90;;;;;;10339850;28;20197;-93
2022/12/17 19:31:25;;;;;;;27.43;16.33;;;1.70;99.90;;;;;;10331905;28;20197;-93
2022/12/17 19:36:29;;;;;;;23.60;12.30;;;2.00;99.90;;;;;;10318709;28;20271;-94
2022/12/17 19:41:33;;;;;;;21.87;12.10;;;4.50;99.90;;;;;;10334978;28;20230;-94
2022/12/17 19:46:35;;;;;;;29.93;15.83;;;6.50;99.90;;;;;;10339866;28;20202;-94
2022/12/17 19:51:39;;;;;;;17.93;10.53;;;6.40;94.70;;;;;;10318297;28;20575;-93
2022/12/17 19:56:43;;;;;;;36.47;15.30;;;5.90;99.90;;;;;;10337562;28;20203;-94
2022/12/17 20:01:47;;;;;;;21.40;12.47;;;6.80;98.00;;;;;;10338617;28;20217;-94
2022/12/17 20:06:50;;;;;;;26.97;13.80;;;6.20;97.70;;;;;;10342338;28;20232;-93
2022/12/17 20:11:52;;;;;;;27.53;15.20;;;5.70;94.80;;;;;;10344257;28;20253;-94
2022/12/17 20:16:57;;;;;;;26.30;14.50;;;6.10;95.10;;;;;;10302193;28;20212;-93
2022/12/17 20:22:03;;;;;;;27.47;16.57;;;5.00;96.50;;;;;;10329565;28;20256;-94
2022/12/17 20:27:05;;;;;;;29.67;17.10;;;6.10;97.00;;;;;;10334212;28;20199;-93
2022/12/17 20:32:08;;;;;;;32.43;15.77;;;5.70;93.60;;;;;;10319211;28;20214;-94
2022/12/17 20:37:10;;;;;;;25.93;15.13;;;4.60;92.10;;;;;;10328259;28;20206;-94
2022/12/17 20:42:13;;;;;;;36.40;20.40;;;3.90;99.90;;;;;;10313945;28;20285;-93
2022/12/17 20:47:15;;;;;;;27.00;15.77;;;2.60;94.60;;;;;;10315261;28;20228;-94
2022/12/17 20:52:19;;;;;;;29.13;17.13;;;2.00;99.90;;;;;;10331832;28;20668;-93
2022/12/17 20:57:21;;;;;;;21.80;13.40;;;2.00;99.90;;;;;;10323488;28;20205;-94
2022/12/17 21:02:24;;;;;;;20.93;12.67;;;3.60;99.90;;;;;;10322120;28;20260;-94
2022/12/17 21:07:27;;;;;;;34.43;22.30;;;5.60;99.90;;;;;;10333190;28;20725;-93
2022/12/17 21:13:27;;;;;;;45.67;22.27;;;4.90;96.00;;;;;;10319602;28;20210;-89
2022/12/17 21:17:53;;;;;;;21.43;12.23;;;2.20;96.40;;;;;;10320217;28;20592;-89
2022/12/17 21:22:55;;;;;;;22.30;14.00;;;2.80;99.90;;;;;;10318861;28;20230;-92
2022/12/17 21:27:59;;;;;;;31.80;19.03;;;4.50;99.90;;;;;;10310898;28;20204;-91
2022/12/17 21:33:04;;;;;;;25.20;15.33;;;4.90;99.50;;;;;;10320390;28;20692;-91
2022/12/17 21:38:07;;;;;;;34.47;19.70;;;5.20;99.90;;;;;;10312065;28;20223;-92
2022/12/17 21:43:12;;;;;;;27.60;13.67;;;6.60;97.10;;;;;;10302594;28;20324;-91
2022/12/17 21:48:17;;;;;;;27.57;14.77;;;5.80;99.20;;;;;;10333525;28;20210;-92
2022/12/17 21:53:20;;;;;;;29.73;17.07;;;5.00;99.80;;;;;;10331250;28;20691;-91
2022/12/17 21:58:22;;;;;;;27.23;15.80;;;4.80;99.90;;;;;;10331075;28;20231;-91
2022/12/17 22:03:25;;;;;;;53.73;28.70;;;4.50;99.90;;;;;;10326397;28;20261;-96
2022/12/17 22:08:27;;;;;;;42.85;24.10;;;4.00;91.00;;;;;;10342876;28;20448;-96
2022/12/17 22:18:52;;;;;;;29.37;13.73;;;2.80;99.90;;;;;;10311595;28;20244;-95
2022/12/17 22:23:54;;;;;;;23.07;11.67;;;4.60;99.90;;;;;;10355604;28;20229;-96
2022/12/17 22:28:57;;;;;;;29.13;15.57;;;5.10;99.90;;;;;;10360273;28;20201;-96
2022/12/17 22:33:59;;;;;;;31.67;16.07;;;4.90;99.90;;;;;;10357204;28;20236;-96
2022/12/17 22:39:22;;;;;;;28.23;15.47;;;5.30;99.90;;;;;;10321235;28;20212;-96
2022/12/17 22:44:44;;;;;;;23.37;11.00;;;6.30;99.90;;;;;;10332962;28;20237;-96
2022/12/17 22:49:55;;;;;;;34.00;16.57;;;6.20;99.90;;;;;;10368149;28;20233;-96
2022/12/17 22:54:58;;;;;;;26.87;15.20;;;6.20;99.90;;;;;;10364574;28;20205;-96
2022/12/17 23:00:00;;;;;;;39.30;19.43;;;6.70;99.90;;;;;;10367481;28;20218;-96
2022/12/17 23:05:03;;;;;;;30.77;17.70;;;6.00;96.80;;;;;;10359339;28;20241;-95
2022/12/17 23:10:06;;;;;;;25.20;13.17;;;5.50;99.90;;;;;;10352197;28;20222;-95
2022/12/17 23:15:08;;;;;;;20.20;10.87;;;5.40;99.90;;;;;;10360504;28;20215;-96
2022/12/17 23:20:15;;;;;;;25.07;13.00;;;5.60;99.90;;;;;;10352297;28;20273;-95
2022/12/17 23:25:17;;;;;;;24.23;13.43;;;5.90;99.90;;;;;;10346895;28;20235;-96
2022/12/17 23:30:22;;;;;;;23.77;13.47;;;6.40;99.90;;;;;;10343866;28;20209;-96
2022/12/17 23:35:25;;;;;;;25.70;13.17;;;6.10;99.90;;;;;;10341104;28;20264;-94
2022/12/17 23:40:27;;;;;;;26.33;13.97;;;6.40;99.90;;;;;;10345913;28;20275;-92
2022/12/17 23:45:29;;;;;;;20.90;12.33;;;6.20;99.50;;;;;;10322942;28;20314;-92
2022/12/17 23:50:32;;;;;;;23.63;12.97;;;6.30;99.90;;;;;;10320443;28;20238;-92
2022/12/17 23:55:34;;;;;;;23.93;12.17;;;6.10;99.90;;;;;;10311933;28;20227;-94
